Date,TemperatureHighF,TemperatureAvgF,TemperatureLowF,DewpointHighF,DewpointAvgF,DewpointLowF,HumidityHigh,HumidityAvg,HumidityLow,PressureMaxIn,PressureMinIn,WindSpeedMaxMPH,WindSpeedAvgMPH,GustSpeedMaxMPH,PrecipitationSumIn
2013-1-1,53,48,43,-100,-100,-100,0,0,100,0.00,40.00,6,3,0,0.00
2013-1-2,60,52,41,-100,-100,-100,0,0,100,0.00,40.00,8,4,0,0.00
2013-1-3,64,52,44,-100,-100,-100,0,0,100,0.00,40.00,6,3,0,0.00
2013-1-4,64,55,49,-100,-100,-100,0,0,100,0.00,40.00,7,4,0,0.00
2013-1-5,57,51,45,-100,-100,-100,0,0,100,0.00,40.00,8,4,0,0.00
2013-1-6,52,48,44,-100,-100,-100,0,0,100,0.00,40.00,12,4,0,0.00
2013-1-7,57,48,42,-100,-100,-100,0,0,100,0.00,40.00,9,4,0,0.00
2013-1-8,66,56,45,-100,-100,-100,0,0,100,0.00,40.00,6,3,0,0.00
2013-1-9,63,54,50,-100,-100,-100,0,0,100,0.00,40.00,11,4,0,0.00
2013-1-10,49,44,38,-100,-100,-100,0,0,100,0.00,40.00,13,6,0,0.00
2013-1-11,49,43,38,-100,-100,-100,0,0,100,0.00,40.00,9,5,0,0.00
2013-1-12,50,42,38,-100,-100,-100,0,0,100,0.00,40.00,8,4,0,0.00
2013-1-13,51,42,35,-100,-100,-100,0,0,100,0.00,40.00,10,6,0,0.00
2013-1-17,70,62,52,-100,-100,-100,0,0,100,0.00,40.00,6,4,0,0.00
2013-1-18,72,64,59,-100,-100,-100,0,0,100,0.00,40.00,9,4,0,0.00
2013-1-19,75,66,58,-100,-100,-100,0,0,100,0.00,40.00,7,4,0,0.00
2013-1-20,76,66,58,-100,-100,-100,0,0,100,0.00,40.00,10,4,0,0.00
2013-1-21,74,67,59,-100,-100,-100,0,0,100,0.00,40.00,9,4,0,0.00
2013-1-22,75,68,60,-100,-100,-100,0,0,100,0.00,40.00,12,5,0,0.00
2013-1-23,70,60,53,-100,-100,-100,0,0,100,0.00,40.00,11,5,0,0.00
2013-1-24,59,57,55,-100,-100,-100,0,0,100,0.00,40.00,14,7,0,0.00
2013-1-25,62,58,56,-100,-100,-100,0,0,100,0.00,40.00,8,4,0,0.00
2013-1-26,63,54,47,-100,-100,-100,0,0,100,0.00,40.00,10,5,0,0.00
2013-1-27,53,47,42,-100,-100,-100,0,0,100,0.00,40.00,12,6,0,0.00
2013-1-28,54,46,39,-100,-100,-100,0,0,100,0.00,40.00,11,5,0,0.00
2013-1-29,58,49,42,-100,-100,-100,0,0,100,0.00,40.00,9,4,0,0.00
2013-1-30,65,55,47,-100,-100,-100,0,0,100,0.00,40.00,11,5,0,0.00
2013-1-31,73,61,53,-100,-100,-100,0,0,100,0.00,40.00,8,4,0,0.00
2013-2-1,71,60,52,-100,-100,-100,0,0,100,0.00,40.00,10,5,0,0.00
2013-2-2,61,56,48,-100,-100,-100,0,0,100,0.00,40.00,5,3,0,0.00
2013-2-3,60,52,46,-100,-100,-100,0,0,100,0.00,40.00,10,4,0,0.00
2013-2-4,65,53,48,-100,-100,-100,0,0,100,0.00,40.00,11,4,0,0.00
2013-2-5,81,67,54,-100,-100,-100,0,0,100,0.00,40.00,5,3,0,0.00
2013-2-6,63,55,48,-100,-100,-100,0,0,100,0.00,40.00,12,5,0,0.00
2013-2-7,61,51,46,-100,-100,-100,0,0,100,0.00,40.00,9,4,0,0.00
2013-2-8,48,44,41,-100,-100,-100,0,0,100,0.00,40.00,12,4,0,0.00
2013-2-9,51,44,32,-100,-100,-100,0,0,100,0.00,40.00,13,5,0,0.00
2013-2-10,53,46,41,-100,-100,-100,0,0,100,0.00,40.00,14,5,0,0.00
2013-2-11,56,48,42,-100,-100,-100,0,0,100,0.00,40.00,9,4,0,0.00
2013-2-12,62,52,44,-100,-100,-100,0,0,100,0.00,40.00,10,4,0,0.00
2013-2-13,64,49,40,-100,-100,-100,0,0,100,0.00,40.00,10,3,0,0.00
2013-2-14,68,58,45,-100,-100,-100,0,0,100,0.00,40.00,9,4,0,0.00
2013-2-15,74,66,58,-100,-100,-100,0,0,100,0.00,40.00,9,6,0,0.00
2013-2-16,74,66,56,-100,-100,-100,0,0,100,0.00,40.00,8,4,0,0.00
2013-2-17,60,50,43,-100,-100,-100,0,0,100,0.00,40.00,14,5,0,0.00
2013-2-18,51,47,46,-100,-100,-100,0,0,100,0.00,40.00,8,3,0,0.00
2013-2-19,51,45,39,-100,-100,-100,0,0,100,0.00,40.00,10,5,0,0.00
2013-2-20,52,44,34,-100,-100,-100,0,0,100,0.00,40.00,10,6,0,0.00
2013-2-21,57,47,32,-100,-100,-100,0,0,100,0.00,40.00,9,4,0,0.00
2013-2-22,61,51,43,-100,-100,-100,0,0,100,0.00,40.00,9,6,0,0.00
2013-2-23,57,50,45,-100,-100,-100,0,0,100,0.00,40.00,16,7,0,0.00
2013-2-24,62,50,42,-100,-100,-100,0,0,100,0.00,40.00,10,5,0,0.00
2013-2-25,61,52,45,-100,-100,-100,0,0,100,0.00,40.00,13,5,0,0.00
2013-2-26,71,55,46,-100,-100,-100,0,0,100,0.00,40.00,11,6,0,0.00
2013-2-27,69,57,47,-100,-100,-100,0,0,100,0.00,40.00,12,5,0,0.00
2013-2-28,73,60,43,-100,-100,-100,0,0,100,0.00,40.00,10,6,0,0.00
2013-3-1,78,67,54,-100,-100,-100,0,0,100,0.00,40.00,7,5,0,0.00
2013-3-2,76,64,48,-100,-100,-100,0,0,100,0.00,40.00,9,4,0,0.00
2013-3-3,65,55,47,-100,-100,-100,0,0,100,0.00,40.00,13,5,0,0.00
2013-3-4,57,49,45,-100,-100,-100,0,0,100,0.00,40.00,13,5,0,0.00
2013-3-5,53,47,45,-100,-100,-100,0,0,100,0.00,40.00,9,4,0,0.00
2013-3-6,56,49,44,-100,-100,-100,0,0,100,0.00,40.00,9,5,0,0.00
2013-3-7,55,49,44,-100,-100,-100,0,0,100,0.00,40.00,13,5,0,0.00
2013-3-8,53,46,42,-100,-100,-100,0,0,100,0.00,40.00,10,4,0,0.00
2013-3-9,57,51,45,-100,-100,-100,0,0,100,0.00,40.00,10,6,0,0.00
2013-3-10,65,53,44,-100,-100,-100,0,0,100,0.00,40.00,12,6,0,0.00
2013-3-11,70,52,40,-100,-100,-100,0,0,100,0.00,40.00,10,3,0,0.00
2013-3-12,69,57,48,-100,-100,-100,0,0,100,0.00,40.00,10,4,0,0.00
2013-3-13,77,61,46,-100,-100,-100,0,0,100,0.00,40.00,10,4,0,0.00
2013-3-14,68,57,45,-100,-100,-100,0,0,100,0.00,40.00,9,3,0,0.00
2013-3-15,70,57,45,-100,-100,-100,0,0,100,0.00,40.00,9,4,0,0.00
2013-3-16,70,54,45,-100,-100,-100,0,0,100,0.00,40.00,12,4,0,0.00
2013-3-17,70,58,47,-100,-100,-100,0,0,100,0.00,40.00,11,4,0,0.00
2013-3-18,64,50,41,-100,-100,-100,0,0,100,0.00,40.00,12,4,0,0.00
2013-3-19,66,54,47,-100,-100,-100,0,0,100,0.00,40.00,13,5,0,0.00
2013-3-20,62,55,51,-100,-100,-100,0,0,100,0.00,40.00,6,3,0,0.00
2013-3-21,63,54,48,-100,-100,-100,0,0,100,0.00,40.00,11,5,0,0.00
2013-3-22,70,57,48,-100,-100,-100,0,0,100,0.00,40.00,13,6,0,0.00
2013-3-23,74,58,47,-100,-100,-100,0,0,100,0.00,40.00,10,6,0,0.00
2013-3-24,68,55,45,-100,-100,-100,0,0,100,0.00,40.00,13,5,0,0.00
2013-3-25,65,50,43,-100,-100,-100,0,0,100,0.00,40.00,11,4,0,0.00
2013-3-26,61,49,43,-100,-100,-100,0,0,100,0.00,40.00,10,4,0,0.00
2013-3-27,62,52,45,-100,-100,-100,0,0,100,0.00,40.00,12,4,0,0.00
2013-3-28,66,54,47,-100,-100,-100,0,0,100,0.00,40.00,13,4,0,0.00
2013-3-29,68,56,49,-100,-100,-100,0,0,100,0.00,40.00,13,5,0,0.00
2013-3-30,68,57,50,-100,-100,-100,0,0,100,0.00,40.00,10,5,0,0.00
2013-3-31,64,57,52,-100,-100,-100,0,0,100,0.00,40.00,12,5,0,0.00
2013-4-1,62,55,50,-100,-100,-100,0,0,100,0.00,40.00,10,4,0,0.00
2013-4-2,69,55,49,-100,-100,-100,0,0,100,0.00,40.00,14,6,0,0.00
2013-4-3,71,54,46,-100,-100,-100,0,0,100,0.00,40.00,10,4,0,0.00
2013-4-4,70,56,48,-100,-100,-100,0,0,100,0.00,40.00,14,6,0,0.00
2013-4-5,63,56,51,-100,-100,-100,0,0,100,0.00,40.00,15,6,0,0.00
2013-4-6,66,56,50,-100,-100,-100,0,0,100,0.00,40.00,15,7,0,0.00
2013-4-7,70,58,51,-100,-100,-100,0,0,100,0.00,40.00,13,7,0,0.00
2013-4-8,56,51,47,-100,-100,-100,0,0,100,0.00,40.00,16,9,0,0.00
2013-4-9,65,54,45,-100,-100,-100,0,0,100,0.00,40.00,15,5,0,0.00
2013-4-10,75,64,50,-100,-100,-100,0,0,100,0.00,40.00,11,6,0,0.00
2013-4-11,56,52,47,-100,-100,-100,0,0,100,0.00,40.00,15,6,0,0.00
2013-4-12,62,51,45,-100,-100,-100,0,0,100,0.00,40.00,10,5,0,0.00
2013-4-13,58,51,45,-100,-100,-100,0,0,100,0.00,40.00,15,5,0,0.00
2013-4-14,61,51,45,-100,-100,-100,0,0,100,0.00,40.00,13,6,0,0.00
2013-4-15,55,48,43,-100,-100,-100,0,0,100,0.00,40.00,16,7,0,0.00
2013-4-16,57,48,39,-100,-100,-100,0,0,100,0.00,40.00,21,8,0,0.00
2013-4-17,63,52,40,-100,-100,-100,0,0,100,0.00,40.00,19,6,0,0.00
2013-4-18,70,60,49,-100,-100,-100,0,0,100,0.00,40.00,12,7,0,0.00
2013-4-19,76,62,48,-100,-100,-100,0,0,100,0.00,40.00,15,6,0,0.00
2013-4-20,81,59,47,-100,-100,-100,0,0,100,0.00,40.00,12,4,0,0.00
2013-4-21,79,64,45,-100,-100,-100,0,0,100,0.00,40.00,11,4,0,0.00
2013-4-22,71,59,49,-100,-100,-100,0,0,100,0.00,40.00,9,4,0,0.00
2013-4-23,68,56,50,-100,-100,-100,0,0,100,0.00,40.00,14,6,0,0.00
2013-4-24,56,54,51,-100,-100,-100,0,0,100,0.00,40.00,7,4,0,0.00
2013-4-25,66,57,52,-100,-100,-100,0,0,100,0.00,40.00,13,5,0,0.00
2013-4-26,65,55,46,-100,-100,-100,0,0,100,0.00,40.00,14,6,0,0.00
2013-4-27,65,57,49,-100,-100,-100,0,0,100,0.00,40.00,13,6,0,0.00
2013-4-28,66,56,46,-100,-100,-100,0,0,100,0.00,40.00,14,7,0,0.00
2013-4-29,72,56,46,-100,-100,-100,0,0,100,0.00,40.00,11,5,0,0.00
2013-4-30,62,54,32,-100,-100,-100,0,0,100,0.00,40.00,10,5,0,0.00
2013-5-1,70,60,52,-100,-100,-100,0,0,100,0.00,40.00,12,5,0,0.00
2013-5-2,82,66,54,-100,-100,-100,0,0,100,0.00,40.00,11,4,0,0.00
2013-5-3,89,73,59,-100,-100,-100,0,0,100,0.00,40.00,16,6,0,0.00
2013-5-4,69,57,47,-100,-100,-100,0,0,100,0.00,40.00,11,5,0,0.00
2013-5-5,62,56,52,-100,-100,-100,0,0,100,0.00,40.00,21,12,0,0.00
2013-5-6,64,58,54,-100,-100,-100,0,0,100,0.00,40.00,14,7,0,0.00
2013-5-7,65,58,54,-100,-100,-100,0,0,100,0.00,40.00,14,5,0,0.00
2013-5-8,65,56,48,-100,-100,-100,0,0,100,0.00,40.00,13,6,0,0.00
2013-5-9,63,55,50,-100,-100,-100,0,0,100,0.00,40.00,16,6,0,0.00
2013-5-10,73,56,50,-100,-100,-100,0,0,100,0.00,40.00,14,6,0,0.00
2013-5-11,77,61,48,-100,-100,-100,0,0,100,0.00,40.00,10,4,0,0.00
2013-5-12,81,65,50,-100,-100,-100,0,0,100,0.00,40.00,13,4,0,0.00
2013-5-13,70,57,49,-100,-100,-100,0,0,100,0.00,40.00,13,5,0,0.00
2013-5-14,64,54,49,-100,-100,-100,0,0,100,0.00,40.00,16,6,0,0.00
2013-5-15,62,54,50,-100,-100,-100,0,0,100,0.00,40.00,15,6,0,0.00
2013-5-16,62,50,48,-100,-100,-100,0,0,100,0.00,40.00,12,5,0,0.00
2013-5-17,64,55,48,-100,-100,-100,0,0,100,0.00,40.00,15,6,0,0.00
2013-5-18,70,56,46,-100,-100,-100,0,0,100,0.00,40.00,15,6,0,0.00
2013-5-19,79,60,45,-100,-100,-100,0,0,100,0.00,40.00,14,5,0,0.00
2013-5-20,79,64,49,-100,-100,-100,0,0,100,0.00,40.00,13,5,0,0.00
2013-5-21,68,56,48,-100,-100,-100,0,0,100,0.00,40.00,14,5,0,0.00
2013-5-22,66,52,43,-100,-100,-100,0,0,100,0.00,40.00,11,5,0,0.00
2013-5-23,58,50,44,-100,-100,-100,0,0,100,0.00,40.00,20,6,0,0.00
2013-5-24,62,51,43,-100,-100,-100,0,0,100,0.00,40.00,15,6,0,0.00
2013-5-25,61,51,44,-100,-100,-100,0,0,100,0.00,40.00,15,6,0,0.00
2013-5-26,65,55,46,-100,-100,-100,0,0,100,0.00,40.00,14,6,0,0.00
2013-5-27,69,58,49,-100,-100,-100,0,0,100,0.00,40.00,17,8,0,0.00
2013-5-28,69,60,51,-100,-100,-100,0,0,100,0.00,40.00,17,7,0,0.00
2013-5-29,72,59,48,-100,-100,-100,0,0,100,0.00,40.00,16,6,0,0.00
2013-5-30,74,60,47,-100,-100,-100,0,0,100,0.00,40.00,10,5,0,0.00
2013-5-31,82,59,45,-100,-100,-100,0,0,100,0.00,40.00,12,4,0,0.00
2013-6-1,60,53,49,-100,-100,-100,0,0,100,0.00,40.00,4,3,0,0.00
2013-6-4,62,60,59,-100,-100,-100,0,0,100,0.00,40.00,7,7,0,0.00
2013-6-5,61,56,52,-100,-100,-100,0,0,100,0.00,40.00,11,6,0,0.00
2013-6-6,65,57,52,-100,-100,-100,0,0,100,0.00,40.00,12,8,0,0.00
2013-6-7,71,57,51,-100,-100,-100,0,0,100,0.00,40.00,13,5,0,0.00
2013-6-8,69,58,50,-100,-100,-100,0,0,100,0.00,40.00,8,4,0,0.00
2013-6-9,67,60,56,-100,-100,-100,0,0,100,0.00,40.00,10,5,0,0.00
2013-6-10,71,61,55,-100,-100,-100,0,0,100,0.00,40.00,13,5,0,0.00
2013-6-11,70,59,51,-100,-100,-100,0,0,100,0.00,40.00,13,6,0,0.00
2013-6-12,66,56,49,-100,-100,-100,0,0,100,0.00,40.00,11,5,0,0.00
2013-6-13,67,56,50,-100,-100,-100,0,0,100,0.00,40.00,13,5,0,0.00
2013-6-14,71,58,46,-100,-100,-100,0,0,100,0.00,40.00,14,6,0,0.00
2013-6-15,65,54,50,-100,-100,-100,0,0,100,0.00,40.00,10,5,0,0.00
2013-6-16,69,58,50,-100,-100,-100,0,0,100,0.00,40.00,14,5,0,0.00
2013-6-17,68,56,49,-100,-100,-100,0,0,100,0.00,40.00,13,5,0,0.00
2013-7-9,59,58,56,-100,-100,-100,0,0,100,0.00,40.00,2,2,0,0.00
2013-7-10,71,61,53,-100,-100,-100,0,0,100,0.00,40.00,7,5,0,0.00
2013-7-11,73,61,54,-100,-100,-100,0,0,100,0.00,40.00,11,5,0,0.00
2013-7-12,73,59,51,-100,-100,-100,0,0,100,0.00,40.00,11,5,0,0.00
2013-7-13,77,61,52,-100,-100,-100,0,0,100,0.00,40.00,13,5,0,0.00
2013-7-14,74,60,49,-100,-100,-100,0,0,100,0.00,40.00,12,5,0,0.00
2013-7-15,68,57,51,-100,-100,-100,0,0,100,0.00,40.00,14,6,0,0.00
2013-7-16,70,58,52,-100,-100,-100,0,0,100,0.00,40.00,12,5,0,0.00
2013-7-17,68,58,52,-100,-100,-100,0,0,100,0.00,40.00,13,5,0,0.00
2013-7-18,66,56,51,-100,-100,-100,0,0,100,0.00,40.00,14,6,0,0.00
2013-7-19,65,55,50,-100,-100,-100,0,0,100,0.00,40.00,12,5,0,0.00
2013-7-20,71,56,51,-100,-100,-100,0,0,100,0.00,40.00,11,4,0,0.00
2013-7-21,74,62,52,-100,-100,-100,0,0,100,0.00,40.00,11,5,0,0.00
2013-7-22,78,64,57,-100,-100,-100,0,0,100,0.00,40.00,11,5,0,0.00
2013-7-23,73,62,54,-100,-100,-100,0,0,100,0.00,40.00,12,5,0,0.00
2013-7-24,71,60,54,-100,-100,-100,0,0,100,0.00,40.00,14,5,0,0.00
2013-7-25,69,60,54,-100,-100,-100,0,0,100,0.00,40.00,13,5,0,0.00
2013-7-26,69,58,53,-100,-100,-100,0,0,100,0.00,40.00,11,4,0,0.00
2013-7-27,70,59,53,-100,-100,-100,0,0,100,0.00,40.00,11,5,0,0.00
2013-7-28,68,58,53,-100,-100,-100,0,0,100,0.00,40.00,11,5,0,0.00
2013-7-29,69,58,54,-100,-100,-100,0,0,100,0.00,40.00,13,4,0,0.00
2013-7-30,65,60,55,-100,-100,-100,0,0,100,0.00,40.00,10,5,0,0.00
2013-7-31,67,57,53,-100,-100,-100,0,0,100,0.00,40.00,12,5,0,0.00
2013-8-1,69,60,53,-100,-100,-100,0,0,100,0.00,40.00,17,7,0,0.00
2013-8-2,65,56,51,-100,-100,-100,0,0,100,0.00,40.00,14,6,0,0.00
2013-8-3,67,56,50,-100,-100,-100,0,0,100,0.00,40.00,12,5,0,0.00
2013-8-4,69,57,51,-100,-100,-100,0,0,100,0.00,40.00,11,4,0,0.00
2013-8-5,68,58,50,-100,-100,-100,0,0,100,0.00,40.00,12,5,0,0.00
2013-8-6,65,56,51,-100,-100,-100,0,0,100,0.00,40.00,11,4,0,0.00
2013-8-7,69,57,51,-100,-100,-100,0,0,100,0.00,40.00,12,4,0,0.00
2013-8-8,67,58,53,-100,-100,-100,0,0,100,0.00,40.00,14,5,0,0.00
2013-8-9,67,59,53,-100,-100,-100,0,0,100,0.00,40.00,14,6,0,0.00
2013-8-10,66,58,54,-100,-100,-100,0,0,100,0.00,40.00,14,6,0,0.00
2013-8-11,65,57,53,-100,-100,-100,0,0,100,0.00,40.00,14,6,0,0.00
2013-8-12,67,57,52,-100,-100,-100,0,0,100,0.00,40.00,14,5,0,0.00
2013-8-13,72,59,52,-100,-100,-100,0,0,100,0.00,40.00,10,5,0,0.00
2013-8-14,75,60,50,-100,-100,-100,0,0,100,0.00,40.00,11,4,0,0.00
2013-8-15,80,59,50,-100,-100,-100,0,0,100,0.00,40.00,12,4,0,0.00
2013-8-16,80,61,51,-100,-100,-100,0,0,100,0.00,40.00,11,5,0,0.00
2013-8-17,71,58,52,-100,-100,-100,0,0,100,0.00,40.00,13,5,0,0.00
2013-8-18,73,59,53,-100,-100,-100,0,0,100,0.00,40.00,11,5,0,0.00
2013-8-19,76,58,53,-100,-100,-100,0,0,100,0.00,40.00,14,4,0,0.00
2013-8-20,73,59,53,-100,-100,-100,0,0,100,0.00,40.00,13,5,0,0.00
2013-8-21,73,61,53,-100,-100,-100,0,0,100,0.00,40.00,10,5,0,0.00
2013-8-22,73,64,55,-100,-100,-100,0,0,100,0.00,40.00,13,6,0,0.00
2013-8-23,72,60,53,-100,-100,-100,0,0,100,0.00,40.00,14,5,0,0.00
2013-8-24,80,61,53,-100,-100,-100,0,0,100,0.00,40.00,13,5,0,0.00
2013-8-25,76,63,53,-100,-100,-100,0,0,100,0.00,40.00,11,5,0,0.00
2013-8-26,74,62,55,-100,-100,-100,0,0,100,0.00,40.00,13,6,0,0.00
2013-8-27,70,57,53,-100,-100,-100,0,0,100,0.00,40.00,10,3,0,0.00
2013-8-28,78,68,56,-100,-100,-100,0,0,100,0.00,40.00,11,7,0,0.00
2013-8-29,78,62,53,-100,-100,-100,0,0,100,0.00,40.00,13,5,0,0.00
2013-8-30,89,72,55,-100,-100,-100,0,0,100,0.00,40.00,11,4,0,0.00
2013-8-31,84,75,69,-100,-100,-100,0,0,100,0.00,40.00,8,5,0,0.00
2013-9-1,81,74,66,-100,-100,-100,0,0,100,0.00,40.00,11,5,0,0.00
2013-9-2,81,68,59,-100,-100,-100,0,0,100,0.00,40.00,11,5,0,0.00
2013-9-3,81,68,58,-100,-100,-100,0,0,100,0.00,40.00,12,4,0,0.00
2013-9-4,75,63,55,-100,-100,-100,0,0,100,0.00,40.00,13,5,0,0.00
2013-9-5,79,63,55,-100,-100,-100,0,0,100,0.00,40.00,12,5,0,0.00
2013-9-6,81,68,54,-100,-100,-100,0,0,100,0.00,40.00,10,4,0,0.00
2013-9-7,80,67,55,-100,-100,-100,0,0,100,0.00,40.00,10,4,0,0.00
2013-9-8,73,61,53,-100,-100,-100,0,0,100,0.00,40.00,11,5,0,0.00
2013-9-9,73,60,53,-100,-100,-100,0,0,100,0.00,40.00,11,4,0,0.00
2013-9-10,73,61,54,-100,-100,-100,0,0,100,0.00,40.00,13,5,0,0.00
2013-9-11,73,61,55,-100,-100,-100,0,0,100,0.00,40.00,12,4,0,0.00
2013-9-12,72,60,54,-100,-100,-100,0,0,100,0.00,40.00,13,5,0,0.00
2013-9-13,71,60,54,-100,-100,-100,0,0,100,0.00,40.00,13,6,0,0.00
2013-9-14,68,58,53,-100,-100,-100,0,0,100,0.00,40.00,14,5,0,0.00
2013-9-15,71,61,52,-100,-100,-100,0,0,100,0.00,40.00,12,6,0,0.00
2013-9-16,71,59,53,-100,-100,-100,0,0,100,0.00,40.00,11,5,0,0.00
2013-9-17,71,60,53,-100,-100,-100,0,0,100,0.00,40.00,15,5,0,0.00
2013-9-18,60,54,52,-100,-100,-100,0,0,100,0.00,40.00,3,2,0,0.00
2013-9-19,79,65,55,-100,-100,-100,0,0,100,0.00,40.00,12,5,0,0.00
2013-9-20,66,59,54,-100,-100,-100,0,0,100,0.00,40.00,11,5,0,0.00
2013-9-21,68,62,57,-100,-100,-100,0,0,100,0.00,40.00,11,4,0,0.00
2013-9-22,70,61,52,-100,-100,-100,0,0,100,0.00,40.00,17,6,0,0.00
2013-9-23,88,72,63,-100,-100,-100,0,0,100,0.00,40.00,10,6,0,0.00
2013-9-24,80,68,54,-100,-100,-100,0,0,100,0.00,40.00,12,6,0,0.00
2013-9-25,67,59,52,-100,-100,-100,0,0,100,0.00,40.00,17,8,0,0.00
2013-9-26,67,57,48,-100,-100,-100,0,0,100,0.00,40.00,15,5,0,0.00
2013-9-27,77,64,50,-100,-100,-100,0,0,100,0.00,40.00,14,6,0,0.00
2013-9-28,83,75,61,-100,-100,-100,0,0,100,0.00,40.00,11,6,0,0.00
2013-9-29,78,68,56,-100,-100,-100,0,0,100,0.00,40.00,11,6,0,0.00
2013-9-30,79,69,55,-100,-100,-100,0,0,100,0.00,40.00,12,6,0,0.00
2013-10-1,62,57,52,-100,-100,-100,0,0,100,0.00,40.00,11,5,0,0.00
2013-10-2,65,56,51,-100,-100,-100,0,0,100,0.00,40.00,11,5,0,0.00
2013-10-3,72,57,45,-100,-100,-100,0,0,100,0.00,40.00,13,5,0,0.00
2013-10-4,76,66,57,-100,-100,-100,0,0,100,0.00,40.00,12,4,0,0.00
2013-10-5,83,77,67,-100,-100,-100,0,0,100,0.00,40.00,12,6,0,0.00
2013-10-6,87,79,67,-100,-100,-100,0,0,100,0.00,40.00,12,6,0,0.00
2013-10-7,72,63,52,-100,-100,-100,0,0,100,0.00,40.00,10,5,0,0.00
2013-10-8,63,53,46,-100,-100,-100,0,0,100,0.00,40.00,11,5,0,0.00
2013-10-9,59,53,50,-100,-100,-100,0,0,100,0.00,40.00,12,5,0,0.00
2013-10-10,64,55,48,-100,-100,-100,0,0,100,0.00,40.00,12,5,0,0.00
2013-10-11,65,56,49,-100,-100,-100,0,0,100,0.00,40.00,10,4,0,0.00
2013-10-12,68,53,47,-100,-100,-100,0,0,100,0.00,40.00,11,5,0,0.00
2013-10-13,63,54,50,-100,-100,-100,0,0,100,0.00,40.00,11,5,0,0.00
2013-10-14,78,66,52,-100,-100,-100,0,0,100,0.00,40.00,12,5,0,0.00
2013-10-15,81,74,63,-100,-100,-100,0,0,100,0.00,40.00,12,6,0,0.00
2013-10-16,83,76,66,-100,-100,-100,0,0,100,0.00,40.00,9,7,0,0.00
2013-10-17,77,69,58,-100,-100,-100,0,0,100,0.00,40.00,11,6,0,0.00
2013-10-18,79,71,59,-100,-100,-100,0,0,100,0.00,40.00,10,6,0,0.00
2013-10-19,76,65,49,-100,-100,-100,0,0,100,0.00,40.00,11,5,0,0.00
2013-10-20,67,53,43,-100,-100,-100,0,0,100,0.00,40.00,10,4,0,0.00
2013-10-21,67,55,49,-100,-100,-100,0,0,100,0.00,40.00,10,4,0,0.00
2013-10-22,67,52,44,-100,-100,-100,0,0,100,0.00,40.00,8,3,0,0.00
2013-10-23,62,54,49,-100,-100,-100,0,0,100,0.00,40.00,9,3,0,0.00
2013-10-24,60,54,52,-100,-100,-100,0,0,100,0.00,40.00,8,3,0,0.00
2013-10-25,67,55,49,-100,-100,-100,0,0,100,0.00,40.00,9,4,0,0.00
2013-10-26,70,57,48,-100,-100,-100,0,0,100,0.00,40.00,10,4,0,0.00
2013-10-27,56,52,49,-100,-100,-100,0,0,100,0.00,40.00,9,4,0,0.00
2013-10-28,57,52,50,-100,-100,-100,0,0,100,0.00,40.00,13,5,0,0.00
2013-10-29,61,54,49,-100,-100,-100,0,0,100,0.00,40.00,14,4,0,0.00
2013-10-30,67,56,48,-100,-100,-100,0,0,100,0.00,40.00,11,4,0,0.00
2013-10-31,75,63,52,-100,-100,-100,0,0,100,0.00,40.00,13,4,0,0.00
2013-11-1,79,72,60,-100,-100,-100,0,0,100,0.00,40.00,8,4,0,0.00
2013-11-2,73,62,50,-100,-100,-100,0,0,100,0.00,40.00,10,6,0,0.00
2013-11-3,68,56,48,-100,-100,-100,0,0,100,0.00,40.00,13,4,0,0.00
2013-11-4,65,57,49,-100,-100,-100,0,0,100,0.00,40.00,10,6,0,0.00
2013-11-5,70,59,51,-100,-100,-100,0,0,100,0.00,40.00,10,5,0,0.00
2013-11-6,76,71,63,-100,-100,-100,0,0,100,0.00,40.00,9,5,0,0.00
2013-11-7,79,67,57,-100,-100,-100,0,0,100,0.00,40.00,9,4,0,0.00
2013-11-8,72,65,54,-100,-100,-100,0,0,100,0.00,40.00,9,4,0,0.00
2013-11-9,70,61,53,-100,-100,-100,0,0,100,0.00,40.00,9,5,0,0.00
2013-11-10,64,54,45,-100,-100,-100,0,0,100,0.00,40.00,11,4,0,0.00
2013-11-11,73,61,51,-100,-100,-100,0,0,100,0.00,40.00,9,4,0,0.00
2013-11-12,69,60,54,-100,-100,-100,0,0,100,0.00,40.00,9,4,0,0.00
2013-11-13,85,69,54,-100,-100,-100,0,0,100,0.00,40.00,10,6,0,0.00
2013-11-14,69,57,48,-100,-100,-100,0,0,100,0.00,40.00,11,5,0,0.00
2013-11-15,61,53,49,-100,-100,-100,0,0,100,0.00,40.00,15,6,0,0.00
2013-11-16,58,50,45,-100,-100,-100,0,0,100,0.00,40.00,10,5,0,0.00
2013-11-17,63,54,48,-100,-100,-100,0,0,100,0.00,40.00,10,4,0,0.00
2013-11-18,63,53,47,-100,-100,-100,0,0,100,0.00,40.00,9,4,0,0.00
2013-11-19,60,52,47,-100,-100,-100,0,0,100,0.00,40.00,9,4,0,0.00
2013-11-20,64,57,52,-100,-100,-100,0,0,100,0.00,40.00,6,3,0,0.00
2013-11-21,56,54,52,-100,-100,-100,0,0,100,0.00,40.00,9,5,0,0.00
2013-11-22,65,55,49,-100,-100,-100,0,0,100,0.00,40.00,9,4,0,0.00
2013-11-23,61,56,50,-100,-100,-100,0,0,100,0.00,40.00,9,4,0,0.00
2013-11-24,65,56,50,-100,-100,-100,0,0,100,0.00,40.00,10,4,0,0.00
2013-11-25,71,61,51,-100,-100,-100,0,0,100,0.00,40.00,8,4,0,0.00
2013-11-26,71,64,53,-100,-100,-100,0,0,100,0.00,40.00,7,3,0,0.00
2013-11-27,70,63,56,-100,-100,-100,0,0,100,0.00,40.00,16,6,0,0.00
2013-11-28,65,60,56,-100,-100,-100,0,0,100,0.00,40.00,11,7,0,0.00
2013-11-29,64,57,53,-100,-100,-100,0,0,100,0.00,40.00,8,4,0,0.00
2013-11-30,73,60,51,-100,-100,-100,0,0,100,0.00,40.00,8,4,0,0.00
2013-12-1,77,67,56,-100,-100,-100,0,0,100,0.00,40.00,7,4,0,0.00
2013-12-2,75,64,53,-100,-100,-100,0,0,100,0.00,40.00,8,5,0,0.00
2013-12-3,59,52,49,-100,-100,-100,0,0,100,0.00,40.00,13,6,0,0.00
2013-12-4,53,46,40,-100,-100,-100,0,0,100,0.00,40.00,11,5,0,0.00
2013-12-5,50,42,35,-100,-100,-100,0,0,100,0.00,40.00,10,6,0,0.00
2013-12-6,51,43,36,-100,-100,-100,0,0,100,0.00,40.00,10,5,0,0.00
2013-12-7,52,46,42,-100,-100,-100,0,0,100,0.00,40.00,13,6,0,0.00
2013-12-8,48,40,34,-100,-100,-100,0,0,100,0.00,40.00,9,4,0,0.00
2013-12-9,51,46,41,-100,-100,-100,0,0,100,0.00,40.00,7,5,0,0.00
2013-12-18,53,52,50,-100,-100,-100,0,0,100,0.00,40.00,7,4,0,0.00
2013-12-19,53,50,48,-100,-100,-100,0,0,100,0.00,40.00,10,5,0,0.00
2013-12-20,60,50,44,-100,-100,-100,0,0,100,0.00,40.00,10,6,0,0.00
2013-12-21,62,52,46,-100,-100,-100,0,0,100,0.00,40.00,9,4,0,0.00
2013-12-22,60,55,48,-100,-100,-100,0,0,100,0.00,40.00,10,4,0,0.00
2013-12-23,71,62,51,-100,-100,-100,0,0,100,0.00,40.00,9,5,0,0.00
2013-12-24,75,64,48,-100,-100,-100,0,0,100,0.00,40.00,6,4,0,0.00
2013-12-25,78,71,62,-100,-100,-100,0,0,100,0.00,40.00,7,4,0,0.00
2013-12-26,76,71,65,-100,-100,-100,0,0,100,0.00,40.00,8,5,0,0.00
2013-12-27,80,72,58,-100,-100,-100,0,0,100,0.00,40.00,7,4,0,0.00
2013-12-28,66,58,50,-100,-100,-100,0,0,100,0.00,40.00,9,4,0,0.00
2013-12-29,75,66,53,-100,-100,-100,0,0,100,0.00,40.00,10,5,0,0.00
2013-12-30,73,69,60,-100,-100,-100,0,0,100,0.00,40.00,8,5,0,0.00
2013-12-31,66,59,49,-100,-100,-100,0,0,100,0.00,40.00,6,4,0,0.00
2014-1-1,69,56,45,-100,-100,-100,0,0,100,0.00,40.00,7,3,0,0.00
2014-1-2,78,69,58,-100,-100,-100,0,0,100,0.00,40.00,11,6,0,0.00